createdAt,value
2018-11-25T00:00:26.109Z,55.67
2018-11-25T00:02:54.299Z,37.43
2018-11-25T00:05:22.523Z,40.30
2018-11-25T00:07:50.724Z,33.05
2018-11-25T00:10:18.933Z,39.67
2018-11-25T00:12:47.142Z,34.03
2018-11-25T00:15:15.372Z,39.40
2018-11-25T00:17:43.561Z,38.37
2018-11-25T00:20:13.241Z,36.53
2018-11-25T00:22:41.745Z,43.80
2018-11-25T00:25:11.974Z,36.33
2018-11-25T00:27:40.172Z,41.43
2018-11-25T00:30:10.076Z,39.40
2018-11-25T00:32:38.372Z,37.73
2018-11-25T00:35:07.743Z,39.20
2018-11-25T00:37:36.049Z,33.98
2018-11-25T00:40:05.490Z,41.13
2018-11-25T00:42:33.677Z,39.65
2018-11-25T00:45:01.959Z,37.10
2018-11-25T00:47:30.157Z,32.30
2018-11-25T00:49:58.354Z,38.27
2018-11-25T00:52:26.590Z,34.33
2018-11-25T00:54:54.806Z,45.43
2018-11-25T00:57:23.067Z,39.97
2018-11-25T00:59:51.263Z,37.63
2018-11-25T01:02:19.523Z,38.65
2018-11-25T01:04:47.701Z,38.43
2018-11-25T01:07:15.926Z,36.73
2018-11-25T01:09:44.153Z,36.95
2018-11-25T01:12:12.349Z,37.87
2018-11-25T01:14:40.558Z,46.03
2018-11-25T01:17:08.844Z,36.93
2018-11-25T01:19:37.037Z,42.73
2018-11-25T01:22:05.251Z,43.27
2018-11-25T01:24:33.473Z,37.55
2018-11-25T01:27:01.693Z,40.77
2018-11-25T01:29:29.888Z,40.23
2018-11-25T01:31:58.141Z,40.03
2018-11-25T01:34:26.381Z,33.80
2018-11-25T01:36:54.621Z,39.47
2018-11-25T01:39:22.824Z,35.00
2018-11-25T01:41:51.116Z,31.03
2018-11-25T01:44:19.377Z,32.10
2018-11-25T01:46:47.596Z,30.37
2018-11-25T01:49:15.806Z,32.27
2018-11-25T01:51:44.045Z,34.27
2018-11-25T01:54:12.255Z,41.15
2018-11-25T01:56:40.466Z,37.17
2018-11-25T01:59:08.698Z,42.33
2018-11-25T02:01:36.981Z,49.03
2018-11-25T02:04:05.292Z,45.93
2018-11-25T02:06:33.529Z,37.85
2018-11-25T02:09:01.728Z,36.95
2018-11-25T02:11:29.944Z,39.57
2018-11-25T02:13:58.185Z,38.90
2018-11-25T02:16:26.467Z,48.15
2018-11-25T02:18:54.713Z,51.93
2018-11-25T02:21:22.950Z,54.70
2018-11-25T02:23:51.184Z,46.40
2018-11-25T02:26:19.408Z,42.73
2018-11-25T02:28:47.613Z,42.33
2018-11-25T02:31:15.843Z,44.50
2018-11-25T02:33:44.071Z,54.23
2018-11-25T02:36:12.336Z,47.60
2018-11-25T02:38:40.558Z,53.20
2018-11-25T02:41:08.748Z,48.63
2018-11-25T02:43:36.992Z,46.90
2018-11-25T02:46:05.332Z,49.58
2018-11-25T02:48:33.788Z,43.17
2018-11-25T02:51:01.999Z,41.95
2018-11-25T02:53:30.289Z,44.38
2018-11-25T02:55:58.568Z,40.13
2018-11-25T02:58:26.781Z,48.00
2018-11-25T03:00:55.093Z,33.45
2018-11-25T03:03:23.445Z,51.97
2018-11-25T03:05:51.711Z,35.05
2018-11-25T03:08:19.976Z,32.88
2018-11-25T03:10:48.154Z,33.17
2018-11-25T03:13:16.433Z,53.07
2018-11-25T03:15:44.636Z,41.70
2018-11-25T03:18:12.894Z,50.87
2018-11-25T03:20:41.166Z,45.13
2018-11-25T03:23:09.355Z,47.62
2018-11-25T03:25:37.640Z,53.60
2018-11-25T03:28:06.278Z,42.97
2018-11-25T03:30:34.497Z,50.27
2018-11-25T03:33:02.705Z,49.10
2018-11-25T03:35:30.994Z,46.27
2018-11-25T03:37:59.210Z,47.90
2018-11-25T03:40:27.408Z,54.65
2018-11-25T03:42:55.573Z,48.20
2018-11-25T03:45:24.138Z,52.00
2018-11-25T03:47:52.830Z,52.03
2018-11-25T03:50:21.119Z,53.70
2018-11-25T03:52:49.344Z,50.00
2018-11-25T03:55:17.886Z,46.93
2018-11-25T03:57:46.154Z,54.87
2018-11-25T04:00:17.420Z,52.33
2018-11-25T04:02:45.664Z,56.93
2018-11-25T04:05:15.675Z,53.73
2018-11-25T04:07:43.875Z,52.67
2018-11-25T04:10:13.877Z,53.57
2018-11-25T04:12:42.087Z,54.70
2018-11-25T04:15:12.202Z,53.93
2018-11-25T04:17:40.571Z,59.83
2018-11-25T04:20:12.125Z,59.90
2018-11-25T04:22:40.367Z,59.47
2018-11-25T04:25:09.542Z,57.27
2018-11-25T04:27:37.792Z,58.55
2018-11-25T04:30:09.632Z,54.37
2018-11-25T04:32:37.840Z,57.67
2018-11-25T04:35:07.163Z,47.40
2018-11-25T04:37:35.473Z,53.45
2018-11-25T04:40:03.697Z,57.00
2018-11-25T04:42:31.928Z,48.67
2018-11-25T04:45:00.117Z,50.37
2018-11-25T04:47:28.346Z,53.77
2018-11-25T04:49:56.577Z,44.98
2018-11-25T04:52:24.791Z,52.67
2018-11-25T04:54:52.991Z,52.83
2018-11-25T04:57:21.181Z,60.80
2018-11-25T04:59:49.355Z,49.13
2018-11-25T05:02:17.548Z,41.23
2018-11-25T05:04:45.742Z,44.90
2018-11-25T05:07:13.933Z,49.33
2018-11-25T05:09:42.316Z,45.07
2018-11-25T05:12:10.629Z,41.30
2018-11-25T05:14:38.851Z,44.83
2018-11-25T05:17:07.100Z,37.13
2018-11-25T05:19:35.319Z,46.05
2018-11-25T05:22:03.505Z,38.00
2018-11-25T05:24:31.749Z,41.63
2018-11-25T05:27:00.056Z,39.63
2018-11-25T05:29:28.309Z,41.87
2018-11-25T05:31:56.794Z,47.03
2018-11-25T05:34:25.143Z,46.57
2018-11-25T05:36:53.365Z,47.60
2018-11-25T05:39:21.637Z,45.30
2018-11-25T05:41:49.892Z,59.50
2018-11-25T05:44:18.195Z,61.08
2018-11-25T05:46:46.439Z,71.00
2018-11-25T05:49:14.652Z,124.30
2018-11-25T05:51:42.881Z,103.12
2018-11-25T05:54:11.111Z,73.53
2018-11-25T05:56:39.343Z,79.67
2018-11-25T05:59:07.564Z,196.05
2018-11-25T06:01:35.819Z,212.07
2018-11-25T06:04:04.053Z,170.93
2018-11-25T06:06:32.306Z,212.27
2018-11-25T06:09:00.534Z,277.50
2018-11-25T06:11:28.760Z,343.50
2018-11-25T06:13:57.030Z,328.62
2018-11-25T06:16:25.278Z,201.13
2018-11-25T06:18:53.502Z,121.47
2018-11-25T06:21:21.796Z,140.37
2018-11-25T06:23:50.016Z,110.80
2018-11-25T06:26:18.279Z,165.73
2018-11-25T06:28:46.571Z,177.82
2018-11-25T06:31:14.780Z,129.77
2018-11-25T06:33:43.060Z,127.67
2018-11-25T06:36:11.331Z,191.55
2018-11-25T06:38:39.582Z,269.70
2018-11-25T06:41:07.804Z,246.80
2018-11-25T06:43:36.042Z,219.23
2018-11-25T06:46:06.697Z,217.87
2018-11-25T06:48:34.996Z,219.93
2018-11-25T06:51:03.245Z,154.43
2018-11-25T06:53:31.633Z,260.45
2018-11-25T06:56:00.385Z,198.50
2018-11-25T06:58:28.594Z,243.33
2018-11-25T07:00:56.791Z,245.70
2018-11-25T07:03:24.976Z,162.67
2018-11-25T07:05:53.321Z,231.63
2018-11-25T07:08:21.518Z,322.77
2018-11-25T07:10:49.966Z,227.55
2018-11-25T07:13:18.234Z,143.17
2018-11-25T07:15:46.848Z,154.63
2018-11-25T07:18:15.564Z,183.00
2018-11-25T07:20:43.800Z,227.05
2018-11-25T07:23:12.067Z,224.43
2018-11-25T07:25:40.351Z,221.63
2018-11-25T07:28:18.286Z,250.40
2018-11-25T07:30:36.984Z,188.97
2018-11-25T07:33:05.242Z,226.07
2018-11-25T07:35:33.511Z,139.75
2018-11-25T07:38:02.763Z,69.00
2018-11-25T07:40:31.032Z,140.23
2018-11-25T07:42:59.262Z,96.78
2018-11-25T07:45:30.745Z,98.63
2018-11-25T07:47:55.719Z,90.17
2018-11-25T07:50:27.480Z,76.17
2018-11-25T07:52:55.717Z,70.03
2018-11-25T07:55:24.900Z,109.67
2018-11-25T07:57:53.957Z,93.78
2018-11-25T08:00:23.170Z,106.95
2018-11-25T08:02:51.450Z,75.73
2018-11-25T08:05:21.845Z,87.20
2018-11-25T08:07:50.089Z,82.57
2018-11-25T08:10:18.316Z,80.50
2018-11-25T08:12:46.902Z,75.72
2018-11-25T08:15:16.729Z,80.03
2018-11-25T08:17:44.975Z,72.57
2018-11-25T08:20:14.300Z,56.43
2018-11-25T08:22:42.924Z,58.42
2018-11-25T08:25:12.174Z,73.53
2018-11-25T08:27:40.444Z,79.35
2018-11-25T08:30:16.525Z,83.80
2018-11-25T08:32:44.773Z,79.63
2018-11-25T08:35:13.791Z,75.03
2018-11-25T08:37:42.061Z,75.00
2018-11-25T08:40:12.260Z,73.33
2018-11-25T08:42:40.465Z,79.83
2018-11-25T08:45:10.056Z,75.87
2018-11-25T08:47:38.352Z,76.57
2018-11-25T08:50:12.145Z,64.17
2018-11-25T08:52:40.560Z,59.40
2018-11-25T08:55:10.353Z,61.80
2018-11-25T08:57:38.581Z,69.20
2018-11-25T09:00:12.458Z,64.37
2018-11-25T09:02:40.676Z,64.87
2018-11-25T09:05:10.346Z,59.77
2018-11-25T09:07:38.613Z,71.97
2018-11-25T09:10:09.936Z,64.03
2018-11-25T09:12:38.176Z,72.93
2018-11-25T09:15:10.187Z,62.37
2018-11-25T09:17:38.461Z,66.13
2018-11-25T09:20:08.951Z,74.77
2018-11-25T09:22:37.183Z,58.03
2018-11-25T09:25:07.204Z,79.37
2018-11-25T09:27:35.447Z,70.70
2018-11-25T09:30:03.689Z,68.67
2018-11-25T09:32:31.892Z,76.87
2018-11-25T09:35:00.080Z,66.83
2018-11-25T09:37:28.261Z,57.13
2018-11-25T09:39:56.437Z,61.73
2018-11-25T09:42:24.679Z,75.13
2018-11-25T09:44:52.883Z,66.10
2018-11-25T09:47:21.102Z,64.50
2018-11-25T09:49:49.328Z,60.20
2018-11-25T09:52:18.167Z,63.87
2018-11-25T09:54:46.353Z,59.30
2018-11-25T09:57:14.584Z,76.12
2018-11-25T09:59:42.774Z,62.30
2018-11-25T10:02:10.962Z,60.50
2018-11-25T10:04:39.140Z,63.98
2018-11-25T10:07:07.380Z,64.20
2018-11-25T10:09:35.601Z,65.23
2018-11-25T10:12:03.794Z,58.60
2018-11-25T10:14:31.966Z,61.60
2018-11-25T10:17:00.143Z,58.87
2018-11-25T10:19:28.374Z,56.55
2018-11-25T10:21:56.781Z,50.77
2018-11-25T10:24:24.976Z,55.73
2018-11-25T10:26:53.154Z,66.28
2018-11-25T10:29:21.329Z,51.90
2018-11-25T10:31:49.540Z,44.60
2018-11-25T10:34:17.726Z,55.03
2018-11-25T10:36:45.925Z,44.70
2018-11-25T10:39:14.517Z,46.53
2018-11-25T10:41:42.355Z,43.13
2018-11-25T10:44:10.557Z,29.07
2018-11-25T10:46:38.725Z,37.97
2018-11-25T10:49:06.922Z,36.45
2018-11-25T10:51:35.100Z,33.70
2018-11-25T10:54:03.286Z,35.70
2018-11-25T10:56:31.518Z,28.40
2018-11-25T10:58:59.715Z,28.53
2018-11-25T11:01:33.405Z,23.83
2018-11-25T11:04:01.596Z,19.47
2018-11-25T11:06:35.225Z,20.77
2018-11-25T11:09:03.605Z,15.90
2018-11-25T11:11:31.772Z,17.35
2018-11-25T11:14:00.206Z,15.90
2018-11-25T11:16:28.551Z,18.10
2018-11-25T11:18:56.795Z,14.50
2018-11-25T11:21:24.979Z,13.55
2018-11-25T11:23:53.180Z,13.00
2018-11-25T11:26:26.148Z,13.63
2018-11-25T11:28:54.400Z,14.20
2018-11-25T11:31:22.601Z,12.13
2018-11-25T11:33:50.810Z,12.47
2018-11-25T11:36:19.018Z,14.73
2018-11-25T11:38:47.238Z,12.70
2018-11-25T11:41:15.446Z,12.93
2018-11-25T11:43:43.674Z,13.90
2018-11-25T11:46:11.921Z,13.30
2018-11-25T11:48:40.126Z,15.72
2018-11-25T11:51:08.365Z,11.87
2018-11-25T11:53:36.561Z,13.97
2018-11-25T11:56:04.836Z,12.23
2018-11-25T11:58:33.060Z,10.77
2018-11-25T12:01:01.286Z,11.13
2018-11-25T12:03:29.487Z,10.68
2018-11-25T12:05:57.694Z,15.07
2018-11-25T12:08:25.878Z,10.77
2018-11-25T12:10:54.118Z,11.68
2018-11-25T12:13:22.367Z,11.60
2018-11-25T12:15:50.557Z,9.90
2018-11-25T12:18:18.786Z,10.68
2018-11-25T12:20:46.969Z,10.63
2018-11-25T12:23:15.161Z,9.60
2018-11-25T12:25:43.358Z,10.85
2018-11-25T12:28:11.547Z,11.27
2018-11-25T12:30:39.821Z,10.33
2018-11-25T12:33:08.021Z,8.68
2018-11-25T12:35:36.223Z,11.97
2018-11-25T12:38:04.408Z,12.57
2018-11-25T12:40:32.647Z,11.73
2018-11-25T12:43:00.821Z,9.93
2018-11-25T12:45:29.076Z,9.67
2018-11-25T12:47:57.297Z,11.63
2018-11-25T12:50:26.295Z,14.17
2018-11-25T12:52:54.798Z,10.83
2018-11-25T12:55:24.195Z,10.43
2018-11-25T12:57:52.560Z,10.93
2018-11-25T13:00:38.227Z,9.90
2018-11-25T13:03:08.672Z,14.20
2018-11-25T13:05:36.858Z,11.87
2018-11-25T13:08:05.343Z,14.20
2018-11-25T13:10:33.534Z,13.83
2018-11-25T13:13:01.786Z,11.60
2018-11-25T13:15:30.015Z,15.47
2018-11-25T13:17:58.235Z,15.20
2018-11-25T13:20:26.452Z,12.23
2018-11-25T13:22:54.660Z,16.33
2018-11-25T13:25:22.879Z,15.20
2018-11-25T13:27:51.111Z,13.53
2018-11-25T13:30:22.675Z,14.27
2018-11-25T13:32:51.957Z,18.27
2018-11-25T13:35:20.136Z,15.90
2018-11-25T13:37:48.325Z,18.70
2018-11-25T13:40:16.933Z,20.15
2018-11-25T13:42:45.162Z,19.60
2018-11-25T13:45:13.384Z,18.03
2018-11-25T13:47:41.562Z,21.85
2018-11-25T13:50:10.750Z,18.63
2018-11-25T13:52:40.301Z,20.40
2018-11-25T13:55:15.919Z,22.87
2018-11-25T13:57:44.125Z,19.70
2018-11-25T14:00:44.959Z,21.37
2018-11-25T14:03:17.432Z,21.80
2018-11-25T14:05:52.634Z,19.33
2018-11-25T14:08:13.877Z,19.93
2018-11-25T14:10:42.176Z,22.98
2018-11-25T14:13:10.391Z,21.70
2018-11-25T14:15:38.580Z,23.10
2018-11-25T14:18:07.150Z,22.05
2018-11-25T14:20:35.308Z,24.37
2018-11-25T14:23:03.515Z,22.33
2018-11-25T14:25:31.776Z,23.42
2018-11-25T14:28:06.845Z,22.53
2018-11-25T14:30:35.142Z,23.63
2018-11-25T14:33:03.472Z,18.93
2018-11-25T14:35:31.685Z,21.62
2018-11-25T14:37:59.901Z,21.60
2018-11-25T14:40:28.319Z,22.27
2018-11-25T14:42:56.581Z,22.73
2018-11-25T14:45:24.800Z,21.03
2018-11-25T14:47:53.787Z,17.97
2018-11-25T14:50:22.015Z,20.23
2018-11-25T14:52:51.581Z,19.57
2018-11-25T14:55:20.194Z,19.17
2018-11-25T14:57:48.427Z,21.57
2018-11-25T15:00:18.556Z,19.87
2018-11-25T15:02:48.288Z,19.73
2018-11-25T15:05:18.969Z,19.73
2018-11-25T15:07:47.168Z,22.67
2018-11-25T15:10:15.400Z,19.93
2018-11-25T15:12:43.659Z,20.72
2018-11-25T15:15:13.181Z,21.70
2018-11-25T15:17:42.193Z,19.37
2018-11-25T15:20:11.485Z,22.23
2018-11-25T15:22:40.078Z,23.40
2018-11-25T15:25:11.420Z,25.45
2018-11-25T15:27:39.608Z,24.40
2018-11-25T15:30:09.729Z,24.00
2018-11-25T15:32:39.315Z,26.70
2018-11-25T15:35:09.317Z,26.13
2018-11-25T15:37:38.538Z,22.70
2018-11-25T15:40:18.115Z,25.27
2018-11-25T15:42:46.353Z,25.87
2018-11-25T15:45:14.620Z,35.53
2018-11-25T15:47:44.641Z,38.05
2018-11-25T15:50:14.555Z,31.20
2018-11-25T15:52:42.747Z,27.57
2018-11-25T15:55:12.559Z,32.87
2018-11-25T15:57:40.817Z,31.90
2018-11-25T16:00:11.980Z,30.13
2018-11-25T16:02:40.238Z,36.67
2018-11-25T16:05:10.471Z,32.03
2018-11-25T16:07:38.667Z,48.33
2018-11-25T16:10:10.186Z,35.43
2018-11-25T16:12:38.579Z,107.27
2018-11-25T16:15:09.147Z,113.40
2018-11-25T16:17:37.367Z,128.83
2018-11-25T16:20:09.343Z,37.93
2018-11-25T16:22:37.606Z,49.93
2018-11-25T16:25:10.592Z,40.60
2018-11-25T16:27:38.832Z,39.47
2018-11-25T16:30:09.789Z,37.07
2018-11-25T16:32:38.140Z,44.00
2018-11-25T16:35:08.321Z,35.80
2018-11-25T16:37:36.732Z,35.57
2018-11-25T16:40:08.465Z,40.17
2018-11-25T16:42:36.688Z,38.47
2018-11-25T16:45:06.472Z,38.20
2018-11-25T16:47:34.821Z,42.27
2018-11-25T16:50:03.096Z,38.05
2018-11-25T16:52:31.799Z,41.37
2018-11-25T16:55:00.113Z,38.30
2018-11-25T16:57:28.335Z,35.93
2018-11-25T16:59:56.694Z,36.53
2018-11-25T17:02:24.951Z,41.63
2018-11-25T17:04:53.217Z,40.87
2018-11-25T17:07:21.476Z,36.50
2018-11-25T17:09:50.198Z,37.03
2018-11-25T17:12:18.470Z,36.50
2018-11-25T17:14:46.953Z,39.37
2018-11-25T17:17:15.212Z,38.63
2018-11-25T17:19:43.443Z,35.47
2018-11-25T17:22:16.411Z,37.73
2018-11-25T17:24:39.934Z,37.23
2018-11-25T17:27:08.172Z,39.30
2018-11-25T17:29:36.417Z,40.57
2018-11-25T17:32:04.855Z,35.28
2018-11-25T17:34:33.101Z,40.27
2018-11-25T17:37:01.317Z,40.67
2018-11-25T17:39:29.532Z,37.90
2018-11-25T17:41:57.827Z,35.80
2018-11-25T17:44:26.131Z,34.27
2018-11-25T17:46:54.960Z,35.30
2018-11-25T17:49:23.179Z,37.13
2018-11-25T17:51:51.404Z,33.57
2018-11-25T17:54:19.599Z,34.45
2018-11-25T17:56:47.948Z,36.50
2018-11-25T17:59:16.137Z,38.77
2018-11-25T18:01:44.382Z,38.00
2018-11-25T18:04:12.605Z,33.33
2018-11-25T18:06:40.919Z,35.37
2018-11-25T18:09:11.146Z,38.90
2018-11-25T18:11:40.584Z,40.43
2018-11-25T18:14:12.010Z,35.17
2018-11-25T18:16:40.407Z,37.30
2018-11-25T18:19:17.041Z,36.42
2018-11-25T18:21:45.266Z,35.90
2018-11-25T18:24:13.562Z,38.80
2018-11-25T18:26:41.736Z,34.43
2018-11-25T18:29:09.981Z,35.30
2018-11-25T18:31:38.249Z,40.07
2018-11-25T18:34:06.452Z,36.93
2018-11-25T18:36:34.684Z,36.70
2018-11-25T18:39:02.921Z,32.93
2018-11-25T18:41:31.155Z,36.45
2018-11-25T18:43:59.360Z,37.60
2018-11-25T18:46:46.900Z,39.83
2018-11-25T18:49:10.360Z,34.90
2018-11-25T18:51:38.861Z,39.37
2018-11-25T18:57:00.921Z,35.07
2018-11-25T18:59:29.238Z,37.60
2018-11-25T19:02:00.110Z,32.93
2018-11-25T19:04:29.214Z,36.70
2018-11-25T19:06:57.493Z,35.60
2018-11-25T19:09:25.708Z,36.77
2018-11-25T19:11:53.957Z,36.35
2018-11-25T19:14:22.173Z,34.23
2018-11-25T19:16:50.512Z,32.80
2018-11-25T19:19:18.791Z,33.55
2018-11-25T19:21:47.084Z,34.63
2018-11-25T19:24:15.296Z,31.17
2018-11-25T19:26:43.864Z,33.15
2018-11-25T19:29:12.174Z,33.00
2018-11-25T19:31:40.415Z,35.70
2018-11-25T19:34:08.633Z,33.20
2018-11-25T19:36:36.898Z,38.50
2018-11-25T19:39:08.495Z,30.90
2018-11-25T19:41:36.726Z,32.37
2018-11-25T19:44:05.568Z,31.73
2018-11-25T19:46:33.782Z,34.10
2018-11-25T19:49:01.996Z,29.15
2018-11-25T19:51:30.337Z,31.70
2018-11-25T19:53:58.656Z,32.10
2018-11-25T19:56:28.870Z,30.27
2018-11-25T19:58:59.355Z,31.67
2018-11-25T20:01:31.770Z,33.07
2018-11-25T20:04:00.026Z,33.83
2018-11-25T20:06:28.257Z,31.70
2018-11-25T20:08:56.506Z,34.13
2018-11-25T20:11:24.778Z,31.83
2018-11-25T20:13:53.042Z,34.80
2018-11-25T20:16:26.797Z,32.20
2018-11-25T20:18:55.121Z,36.50
2018-11-25T20:21:28.761Z,34.48
2018-11-25T20:23:57.003Z,33.27
2018-11-25T20:26:25.242Z,32.80
2018-11-25T20:28:53.537Z,34.35
2018-11-25T20:31:21.850Z,33.50
2018-11-25T20:33:52.633Z,32.70
2018-11-25T20:36:20.661Z,34.00
2018-11-25T20:38:54.205Z,32.27
2018-11-25T20:41:22.395Z,31.90
2018-11-25T20:43:50.769Z,33.77
2018-11-25T20:46:24.616Z,34.25
2018-11-25T20:48:52.990Z,31.33
2018-11-25T20:51:25.719Z,33.50
2018-11-25T20:53:57.420Z,35.83
2018-11-25T20:56:29.149Z,30.73
2018-11-25T20:58:57.439Z,32.03
2018-11-25T21:01:25.733Z,34.90
2018-11-25T21:03:54.098Z,33.90
2018-11-25T21:06:32.344Z,33.13
2018-11-25T21:09:00.588Z,35.70
2018-11-25T21:11:28.804Z,32.43
2018-11-25T21:13:57.056Z,30.27
2018-11-25T21:16:25.323Z,32.60
2018-11-25T21:18:53.530Z,33.07
2018-11-25T21:21:21.755Z,32.53
2018-11-25T21:23:49.999Z,34.77
2018-11-25T21:26:18.341Z,34.97
2018-11-25T21:28:46.740Z,31.45
2018-11-25T21:31:15.035Z,32.37
2018-11-25T21:33:43.212Z,31.53
2018-11-25T21:36:11.561Z,34.13
2018-11-25T21:38:40.043Z,33.63
2018-11-25T21:41:08.293Z,33.38
2018-11-25T21:43:36.656Z,34.57
2018-11-25T21:46:05.278Z,34.90
2018-11-25T21:48:33.871Z,30.40
2018-11-25T21:51:02.459Z,28.70
2018-11-25T21:53:30.828Z,33.30
2018-11-25T21:55:59.053Z,32.40
2018-11-25T21:58:28.828Z,32.90
2018-11-25T22:00:55.580Z,33.73
2018-11-25T22:03:24.100Z,33.40
2018-11-25T22:05:52.422Z,33.70
2018-11-25T22:08:20.782Z,32.20
2018-11-25T22:10:49.169Z,32.63
2018-11-25T22:13:17.511Z,35.23
2018-11-25T22:15:45.850Z,31.63
2018-11-25T22:18:14.168Z,32.45
2018-11-25T22:20:42.443Z,29.70
2018-11-25T22:23:11.175Z,34.70
2018-11-25T22:25:40.093Z,30.40
2018-11-25T22:28:08.832Z,30.57
2018-11-25T22:30:37.084Z,32.38
2018-11-25T22:33:06.110Z,29.87
2018-11-25T22:35:34.554Z,32.87
2018-11-25T22:38:02.918Z,35.35
2018-11-25T22:40:31.240Z,31.77
2018-11-25T22:42:59.494Z,30.47
2018-11-25T22:45:28.461Z,33.65
2018-11-25T22:47:57.352Z,30.17
2018-11-25T22:50:27.703Z,29.57
2018-11-25T22:52:54.337Z,28.32
2018-11-25T22:55:23.933Z,32.43
2018-11-25T22:57:52.189Z,28.73
2018-11-25T23:00:23.013Z,33.90
2018-11-25T23:02:51.237Z,31.40
2018-11-25T23:05:31.033Z,29.47
2018-11-25T23:07:59.818Z,32.40
2018-11-25T23:10:28.182Z,30.30
2018-11-25T23:12:56.633Z,33.33
2018-11-25T23:15:24.965Z,28.62
2018-11-25T23:17:53.238Z,31.27
2018-11-25T23:20:21.688Z,30.17
2018-11-25T23:22:50.098Z,35.97
2018-11-25T23:25:18.890Z,33.27
2018-11-25T23:27:47.477Z,32.93
2018-11-25T23:30:15.736Z,34.08
2018-11-25T23:32:44.017Z,34.90
2018-11-25T23:35:16.100Z,31.73
2018-11-25T23:37:44.601Z,31.37
2018-11-25T23:40:12.843Z,34.38
2018-11-25T23:42:41.321Z,30.80
2018-11-25T23:45:11.882Z,36.03
2018-11-25T23:47:40.176Z,28.40
2018-11-25T23:50:10.455Z,31.17
2018-11-25T23:52:38.910Z,30.80
2018-11-25T23:55:08.541Z,31.75
2018-11-25T23:57:36.836Z,31.50
